Andrew, IA (52030)

3:12 PM CST on February 10, 2016 (GMT -0600)
Maquoketa Weather 1 ( Middle School | | Change Station
CLOSE
Current Station
Personal Weather Station
Location: Maquoketa, IA
Elevation: 755 ft
Nearby Weather Stations

Elev 755 ft 42.06 °N, 90.67 °W | Updated 14 minutes ago

Overcast
Overcast
22.3 °F
Feels Like 22 °F
N
1.1
Wind Variable Wind from SE

Today
High -- | Low -- °F
--% Chance of Precip.
Yesterday
High -- | Low -- °F
Precip. -- in
Pressure 30.10 in
Visibility 10.0 miles
Clouds Few 11000 ft
Windchill 22 °F
Dew Point 5 °F
Humidity 46%
Rainfall 0.00 in
Snow Depth Not available.
7:05 AM 5:28 PM
Waxing Crescent, 7% visible
METAR KDBQ 102053Z 29008KT 10SM FEW110 M10/M17 A3003 RMK AO2 SLP192 T11001172 55005
Pressure 30.10 in
Visibility 10.0 miles
Clouds Few 11000 ft
Windchill 22 °F
Dew Point 5 °F
Humidity 46%
Rainfall 0.00 in
Snow Depth Not available.
7:05 AM 5:28 PM
Waxing Crescent, 7% visible
METAR KDBQ 102053Z 29008KT 10SM FEW110 M10/M17 A3003 RMK AO2 SLP192 T11001172 55005

10-Day Weather Forecast

Almanac

Astronomy

Feb. 10, 2016 Rise Set
Actual Time
Civil Twilight
Nautical Twilight
Astronomical Twilight
Moon
Length of Visible Light
Length of Day
Tomorrow will be .
, % of the Moon is Illuminated

Today's Extremes

State Highs State Lows

Community

WunderPhotos

Upload Photos

1,891,949 photos uploaded!

WunderBlog® & News

Nearby

Air Quality

  Air Quality AQ Index Pollutant
Not available.

Snow Depth

Station Depth Elevation

Earthquake Activity

City Distance Mag. Time & Date
Minimum magnitude displayed is 2.5.

Coastal Water Temperatures

Place Temperature

Stations

Nearby Weather Stations

Station Location Temp. Windchill Dew Point Humidity Wind Precip. Elev Updated Type
                   

Watches & Warnings

There are currently no watches in effect.